Time,TemperatureF,DewpointF,PressureIn,WindDirection,WindDirectionDegrees,WindSpeedMPH,WindSpeedGustMPH,Humidity,HourlyPrecipIn,Conditions,Clouds,dailyrainin,SoftwareType,DateUTC
2013-03-18 00:02:00,33.0,15.0,-100.00,NNE,27,4.0,4.0,46,-99.99,,,-99.99,,2013-03-18 06:02:00,
2013-03-18 00:12:00,32.0,15.0,-100.00,North,5,5.0,6.0,48,-99.99,,,-99.99,,2013-03-18 06:12:00,
2013-03-18 00:22:00,32.0,15.0,-100.00,North,9,5.0,5.0,49,-99.99,,,-99.99,,2013-03-18 06:22:00,
2013-03-18 00:32:00,32.0,15.0,-100.00,North,9,5.0,5.0,49,-99.99,,,-99.99,,2013-03-18 06:32:00,
2013-03-18 00:42:00,33.0,15.0,-100.00,North,358,4.0,4.0,47,-99.99,,,-99.99,,2013-03-18 06:42:00,
2013-03-18 00:52:00,32.0,15.0,-100.00,NNE,25,6.0,6.0,47,-99.99,,,-99.99,,2013-03-18 06:52:00,
2013-03-18 01:01:00,33.0,15.0,-100.00,North,6,5.0,6.0,47,-99.99,,,-99.99,,2013-03-18 07:01:00,
2013-03-18 01:12:00,32.0,15.0,-100.00,NE,48,6.0,7.0,49,-99.99,,,-99.99,,2013-03-18 07:12:00,
2013-03-18 01:22:00,33.0,15.0,-100.00,NNE,31,5.0,6.0,47,-99.99,,,-99.99,,2013-03-18 07:22:00,
2013-03-18 01:31:00,33.0,15.0,-100.00,North,355,2.0,3.0,45,-99.99,,,-99.99,,2013-03-18 07:31:00,
2013-03-18 01:42:00,33.0,15.0,-100.00,North,355,2.0,3.0,45,-99.99,,,-99.99,,2013-03-18 07:42:00,
2013-03-18 01:52:00,31.0,15.0,-100.00,East,98,4.0,5.0,50,-99.99,,,-99.99,,2013-03-18 07:52:00,
2013-03-18 02:02:00,31.0,15.0,-100.00,East,85,3.0,5.0,52,-99.99,,,-99.99,,2013-03-18 08:02:00,
2013-03-18 02:11:00,29.0,15.0,-100.00,SSE,158,2.0,4.0,55,-99.99,,,-99.99,,2013-03-18 08:11:00,
2013-03-18 02:22:00,29.0,15.0,-100.00,ESE,116,6.0,6.0,54,-99.99,,,-99.99,,2013-03-18 08:22:00,
2013-03-18 02:32:00,29.0,15.0,-100.00,ESE,116,6.0,6.0,54,-99.99,,,-99.99,,2013-03-18 08:32:00,
2013-03-18 02:42:00,29.0,15.0,-100.00,ESE,115,4.0,5.0,55,-99.99,,,-99.99,,2013-03-18 08:42:00,
2013-03-18 02:51:00,28.0,16.0,-100.00,SSE,151,3.0,5.0,58,-99.99,,,-99.99,,2013-03-18 08:51:00,
2013-03-18 03:02:00,28.0,15.0,-100.00,ESE,117,7.0,7.0,57,-99.99,,,-99.99,,2013-03-18 09:02:00,
2013-03-18 03:12:00,29.0,15.0,-100.00,ESE,116,5.0,6.0,56,-99.99,,,-99.99,,2013-03-18 09:12:00,
2013-03-18 03:22:00,27.0,16.0,-100.00,SE,143,4.0,5.0,61,-99.99,,,-99.99,,2013-03-18 09:22:00,
2013-03-18 03:32:00,28.0,16.0,-100.00,ESE,114,6.0,6.0,59,-99.99,,,-99.99,,2013-03-18 09:32:00,
2013-03-18 03:42:00,28.0,16.0,-100.00,SE,128,6.0,7.0,61,-99.99,,,-99.99,,2013-03-18 09:42:00,
2013-03-18 03:53:00,28.0,15.0,-100.00,SE,133,5.0,6.0,59,-99.99,,,-99.99,,2013-03-18 09:53:00,
2013-03-18 04:03:00,27.0,16.0,-100.00,SE,129,5.0,5.0,62,-99.99,,,-99.99,,2013-03-18 10:03:00,
2013-03-18 04:12:00,27.0,16.0,-100.00,SE,129,5.0,5.0,62,-99.99,,,-99.99,,2013-03-18 10:12:00,
2013-03-18 04:23:00,28.0,18.0,-100.00,ESE,117,6.0,6.0,66,-99.99,,,-99.99,,2013-03-18 10:23:00,
2013-03-18 04:32:00,28.0,16.0,-100.00,ESE,113,5.0,5.0,60,-99.99,,,-99.99,,2013-03-18 10:32:00,
2013-03-18 04:42:00,28.0,16.0,-100.00,ESE,113,5.0,5.0,60,-99.99,,,-99.99,,2013-03-18 10:42:00,
2013-03-18 04:52:00,27.0,14.0,-100.00,ESE,111,3.0,4.0,57,-99.99,,,-99.99,,2013-03-18 10:52:00,
2013-03-18 05:02:00,28.0,16.0,-100.00,SE,125,4.0,4.0,58,-99.99,,,-99.99,,2013-03-18 11:02:00,
2013-03-18 05:12:00,28.0,16.0,-100.00,SE,125,4.0,4.0,58,-99.99,,,-99.99,,2013-03-18 11:12:00,
2013-03-18 05:22:00,26.0,17.0,-100.00,South,169,5.0,5.0,68,-99.99,,,-99.99,,2013-03-18 11:22:00,
2013-03-18 05:31:00,27.0,16.0,-100.00,ESE,113,5.0,5.0,64,-99.99,,,-99.99,,2013-03-18 11:31:00,
2013-03-18 05:42:00,28.0,17.0,-100.00,SE,126,5.0,5.0,61,-99.99,,,-99.99,,2013-03-18 11:42:00,
2013-03-18 05:52:00,28.0,17.0,-100.00,SE,146,3.0,4.0,62,-99.99,,,-99.99,,2013-03-18 11:52:00,
2013-03-18 06:01:00,25.0,17.0,-100.00,ESE,117,5.0,6.0,70,-99.99,,,-99.99,,2013-03-18 12:01:00,
2013-03-18 06:12:00,27.0,17.0,-100.00,SSE,168,2.0,7.0,66,-99.99,,,-99.99,,2013-03-18 12:12:00,
2013-03-18 06:21:00,27.0,17.0,-100.00,SSE,168,2.0,7.0,66,-99.99,,,-99.99,,2013-03-18 12:21:00,
2013-03-18 06:32:00,25.0,17.0,-100.00,SE,145,4.0,4.0,69,-99.99,,,-99.99,,2013-03-18 12:32:00,
2013-03-18 06:42:00,26.0,17.0,-100.00,SSE,151,7.0,7.0,68,-99.99,,,-99.99,,2013-03-18 12:42:00,
2013-03-18 06:51:00,26.0,18.0,-100.00,South,191,6.0,7.0,71,-99.99,,,-99.99,,2013-03-18 12:51:00,
2013-03-18 07:02:00,26.0,18.0,-100.00,South,190,4.0,7.0,72,-99.99,,,-99.99,,2013-03-18 13:02:00,
2013-03-18 07:12:00,27.0,18.0,-100.00,SSE,167,8.0,9.0,68,-99.99,,,-99.99,,2013-03-18 13:12:00,
2013-03-18 07:22:00,30.0,17.0,-100.00,SSE,158,8.0,11.0,59,-99.99,,,-99.99,,2013-03-18 13:22:00,
2013-03-18 07:32:00,29.0,18.0,-100.00,SSE,164,8.0,9.0,63,-99.99,,,-99.99,,2013-03-18 13:32:00,
2013-03-18 07:42:00,28.0,18.0,-100.00,SSE,158,10.0,10.0,66,-99.99,,,-99.99,,2013-03-18 13:42:00,
2013-03-18 07:52:00,28.0,19.0,-100.00,SSE,151,10.0,11.0,67,-99.99,,,-99.99,,2013-03-18 13:52:00,
2013-03-18 08:02:00,28.0,19.0,-100.00,SE,146,10.0,11.0,66,-99.99,,,-99.99,,2013-03-18 14:02:00,
2013-03-18 08:12:00,28.0,19.0,-100.00,SSE,166,10.0,11.0,68,-99.99,,,-99.99,,2013-03-18 14:12:00,
2013-03-18 08:21:00,28.0,20.0,-100.00,SSE,155,8.0,9.0,69,-99.99,,,-99.99,,2013-03-18 14:21:00,
2013-03-18 08:32:00,28.0,20.0,-100.00,SSE,155,8.0,9.0,69,-99.99,,,-99.99,,2013-03-18 14:32:00,
2013-03-18 08:42:00,28.0,19.0,-100.00,ESE,117,6.0,7.0,68,-99.99,,,-99.99,,2013-03-18 14:42:00,
2013-03-18 08:51:00,29.0,19.0,-100.00,South,177,5.0,5.0,63,-99.99,,,-99.99,,2013-03-18 14:51:00,
2013-03-18 09:02:00,29.0,19.0,-100.00,South,177,5.0,5.0,63,-99.99,,,-99.99,,2013-03-18 15:02:00,
2013-03-18 09:12:00,30.0,19.0,-100.00,South,176,4.0,5.0,63,-99.99,,,-99.99,,2013-03-18 15:12:00,
2013-03-18 09:22:00,31.0,18.0,-100.00,SSE,163,6.0,6.0,58,-99.99,,,-99.99,,2013-03-18 15:22:00,
2013-03-18 09:33:00,31.0,19.0,-100.00,SSE,163,5.0,6.0,59,-99.99,,,-99.99,,2013-03-18 15:33:00,
2013-03-18 09:42:00,31.0,18.0,-100.00,SE,144,6.0,6.0,58,-99.99,,,-99.99,,2013-03-18 15:42:00,
2013-03-18 09:52:00,32.0,19.0,-100.00,SSE,157,7.0,8.0,58,-99.99,,,-99.99,,2013-03-18 15:52:00,
2013-03-18 10:02:00,32.0,18.0,-100.00,SSE,148,8.0,8.0,55,-99.99,,,-99.99,,2013-03-18 16:02:00,
2013-03-18 10:12:00,33.0,18.0,-100.00,SSE,149,10.0,11.0,54,-99.99,,,-99.99,,2013-03-18 16:12:00,
2013-03-18 10:22:00,32.0,18.0,-100.00,SSE,165,7.0,10.0,53,-99.99,,,-99.99,,2013-03-18 16:22:00,
2013-03-18 10:32:00,32.0,18.0,-100.00,SSE,166,8.0,9.0,55,-99.99,,,-99.99,,2013-03-18 16:32:00,
2013-03-18 10:42:00,33.0,18.0,-100.00,South,175,7.0,9.0,54,-99.99,,,-99.99,,2013-03-18 16:42:00,
2013-03-18 10:52:00,35.0,21.0,-100.00,South,178,6.0,8.0,55,-99.99,,,-99.99,,2013-03-18 16:52:00,
2013-03-18 11:02:00,35.0,21.0,-100.00,South,178,6.0,8.0,55,-99.99,,,-99.99,,2013-03-18 17:02:00,
2013-03-18 11:12:00,36.0,21.0,-100.00,SSE,158,9.0,10.0,54,-99.99,,,-99.99,,2013-03-18 17:12:00,
2013-03-18 11:21:00,38.0,22.0,-100.00,SSE,168,6.0,9.0,52,-99.99,,,-99.99,,2013-03-18 17:21:00,
2013-03-18 11:32:00,39.0,22.0,-100.00,SSE,162,8.0,9.0,50,-99.99,,,-99.99,,2013-03-18 17:32:00,
2013-03-18 11:42:00,40.0,21.0,-100.00,South,177,8.0,10.0,47,-99.99,,,-99.99,,2013-03-18 17:42:00,
2013-03-18 11:52:00,41.0,21.0,-100.00,South,185,7.0,9.0,45,-99.99,,,-99.99,,2013-03-18 17:52:00,
2013-03-18 12:01:00,42.0,22.0,-100.00,South,180,7.0,9.0,43,-99.99,,,-99.99,,2013-03-18 18:01:00,
2013-03-18 12:12:00,44.0,20.0,-100.00,ESE,110,1.0,7.0,37,-99.99,,,-99.99,,2013-03-18 18:12:00,
2013-03-18 12:22:00,45.0,14.0,-100.00,South,188,6.0,9.0,28,-99.99,,,-99.99,,2013-03-18 18:22:00,
2013-03-18 12:32:00,45.0,15.0,-100.00,SSW,196,8.0,11.0,29,-99.99,,,-99.99,,2013-03-18 18:32:00,
2013-03-18 12:42:00,45.0,14.0,-100.00,SSW,210,6.0,9.0,27,-99.99,,,-99.99,,2013-03-18 18:42:00,
2013-03-18 12:52:00,47.0,14.0,-100.00,South,178,4.0,10.0,25,-99.99,,,-99.99,,2013-03-18 18:52:00,
2013-03-18 13:02:00,47.0,14.0,-100.00,South,178,4.0,10.0,25,-99.99,,,-99.99,,2013-03-18 19:02:00,
2013-03-18 13:11:00,47.0,14.0,-100.00,NNW,335,2.0,13.0,26,-99.99,,,-99.99,,2013-03-18 19:11:00,
2013-03-18 13:22:00,47.0,15.0,-100.00,WSW,252,3.0,6.0,26,-99.99,,,-99.99,,2013-03-18 19:22:00,
2013-03-18 13:32:00,47.0,15.0,-100.00,WSW,252,3.0,6.0,26,-99.99,,,-99.99,,2013-03-18 19:32:00,
2013-03-18 13:42:00,48.0,14.0,-100.00,SSW,200,7.0,11.0,25,-99.99,,,-99.99,,2013-03-18 19:42:00,
2013-03-18 13:52:00,48.0,14.0,-100.00,SSW,199,9.0,16.0,25,-99.99,,,-99.99,,2013-03-18 19:52:00,
2013-03-18 14:02:00,48.0,14.0,-100.00,SSW,199,9.0,16.0,25,-99.99,,,-99.99,,2013-03-18 20:02:00,
2013-03-18 14:12:00,49.0,14.0,-100.00,WSW,255,9.0,11.0,24,-99.99,,,-99.99,,2013-03-18 20:12:00,
2013-03-18 14:22:00,49.0,14.0,-100.00,WSW,255,9.0,11.0,24,-99.99,,,-99.99,,2013-03-18 20:22:00,
2013-03-18 14:32:00,48.0,14.0,-100.00,SW,235,5.0,7.0,25,-99.99,,,-99.99,,2013-03-18 20:32:00,
2013-03-18 14:42:00,48.0,14.0,-100.00,South,172,5.0,8.0,24,-99.99,,,-99.99,,2013-03-18 20:42:00,
2013-03-18 14:51:00,49.0,15.0,-100.00,SSE,164,4.0,9.0,25,-99.99,,,-99.99,,2013-03-18 20:51:00,
2013-03-18 15:02:00,49.0,13.0,-100.00,South,171,6.0,11.0,23,-99.99,,,-99.99,,2013-03-18 21:02:00,
2013-03-18 15:11:00,50.0,15.0,-100.00,ESE,117,7.0,9.0,23,-99.99,,,-99.99,,2013-03-18 21:11:00,
2013-03-18 15:22:00,50.0,15.0,-100.00,ESE,117,7.0,9.0,23,-99.99,,,-99.99,,2013-03-18 21:22:00,
2013-03-18 15:32:00,50.0,17.0,-100.00,WSW,254,5.0,13.0,25,-99.99,,,-99.99,,2013-03-18 21:32:00,
2013-03-18 15:42:00,50.0,13.0,-100.00,WSW,251,9.0,10.0,22,-99.99,,,-99.99,,2013-03-18 21:42:00,
2013-03-18 15:52:00,51.0,14.0,-100.00,SW,234,9.0,14.0,22,-99.99,,,-99.99,,2013-03-18 21:52:00,
2013-03-18 16:03:00,52.0,13.0,-100.00,NW,318,13.0,17.0,21,-99.99,,,-99.99,,2013-03-18 22:03:00,
2013-03-18 16:12:00,51.0,13.0,-100.00,West,275,4.0,11.0,21,-99.99,,,-99.99,,2013-03-18 22:12:00,
2013-03-18 16:22:00,52.0,11.0,-100.00,WNW,299,10.0,16.0,19,-99.99,,,-99.99,,2013-03-18 22:22:00,
2013-03-18 16:32:00,52.0,11.0,-100.00,WNW,299,10.0,16.0,19,-99.99,,,-99.99,,2013-03-18 22:32:00,
2013-03-18 16:42:00,51.0,11.0,-100.00,West,270,5.0,14.0,19,-99.99,,,-99.99,,2013-03-18 22:42:00,
2013-03-18 16:52:00,50.0,8.0,-100.00,West,267,9.0,20.0,17,-99.99,,,-99.99,,2013-03-18 22:52:00,
2013-03-18 17:02:00,51.0,10.0,-100.00,WSW,254,12.0,20.0,18,-99.99,,,-99.99,,2013-03-18 23:02:00,
2013-03-18 17:12:00,51.0,9.0,-100.00,SW,235,6.0,13.0,17,-99.99,,,-99.99,,2013-03-18 23:12:00,
2013-03-18 17:22:00,51.0,9.0,-100.00,SW,235,6.0,13.0,17,-99.99,,,-99.99,,2013-03-18 23:22:00,
2013-03-18 17:32:00,51.0,9.0,-100.00,NNW,339,13.0,18.0,17,-99.99,,,-99.99,,2013-03-18 23:32:00,
2013-03-18 17:42:00,51.0,8.0,-100.00,ENE,61,1.0,12.0,17,-99.99,,,-99.99,,2013-03-18 23:42:00,
2013-03-18 17:52:00,51.0,9.0,-100.00,NW,319,7.0,12.0,18,-99.99,,,-99.99,,2013-03-18 23:52:00,
2013-03-18 18:02:00,50.0,11.0,-100.00,NNW,344,7.0,13.0,20,-99.99,,,-99.99,,2013-03-19 00:02:00,
2013-03-18 18:12:00,51.0,9.0,-100.00,NNW,340,6.0,13.0,18,-99.99,,,-99.99,,2013-03-19 00:12:00,
2013-03-18 18:22:00,51.0,9.0,-100.00,NNW,340,6.0,13.0,18,-99.99,,,-99.99,,2013-03-19 00:22:00,
2013-03-18 18:32:00,49.0,11.0,-100.00,NNW,341,8.0,12.0,21,-99.99,,,-99.99,,2013-03-19 00:32:00,
2013-03-18 18:42:00,50.0,12.0,-100.00,NNW,346,9.0,10.0,21,-99.99,,,-99.99,,2013-03-19 00:42:00,
2013-03-18 18:51:00,49.0,13.0,-100.00,NNW,348,6.0,9.0,22,-99.99,,,-99.99,,2013-03-19 00:51:00,
2013-03-18 19:02:00,48.0,15.0,-100.00,North,6,9.0,11.0,25,-99.99,,,-99.99,,2013-03-19 01:02:00,
2013-03-18 19:11:00,48.0,16.0,-100.00,NNE,33,6.0,8.0,27,-99.99,,,-99.99,,2013-03-19 01:11:00,
2013-03-18 19:21:00,48.0,15.0,-100.00,NE,44,7.0,8.0,26,-99.99,,,-99.99,,2013-03-19 01:21:00,
2013-03-18 19:32:00,48.0,15.0,-100.00,NE,44,7.0,8.0,26,-99.99,,,-99.99,,2013-03-19 01:32:00,
2013-03-18 19:42:00,48.0,15.0,-100.00,NE,40,5.0,7.0,26,-99.99,,,-99.99,,2013-03-19 01:42:00,
2013-03-18 19:52:00,47.0,15.0,-100.00,NE,44,4.0,6.0,27,-99.99,,,-99.99,,2013-03-19 01:52:00,
2013-03-18 20:01:00,46.0,15.0,-100.00,NE,38,6.0,9.0,28,-99.99,,,-99.99,,2013-03-19 02:01:00,
2013-03-18 20:12:00,45.0,15.0,-100.00,NE,39,5.0,6.0,29,-99.99,,,-99.99,,2013-03-19 02:12:00,
2013-03-18 20:21:00,45.0,15.0,-100.00,NE,39,5.0,6.0,29,-99.99,,,-99.99,,2013-03-19 02:21:00,
2013-03-18 20:32:00,44.0,15.0,-100.00,North,1,3.0,7.0,30,-99.99,,,-99.99,,2013-03-19 02:32:00,
2013-03-18 20:42:00,43.0,15.0,-100.00,NNE,29,6.0,7.0,31,-99.99,,,-99.99,,2013-03-19 02:42:00,
2013-03-18 20:51:00,43.0,14.0,-100.00,NE,35,3.0,5.0,30,-99.99,,,-99.99,,2013-03-19 02:51:00,
2013-03-18 21:01:00,42.0,14.0,-100.00,NNE,27,4.0,4.0,31,-99.99,,,-99.99,,2013-03-19 03:01:00,
2013-03-18 21:11:00,43.0,14.0,-100.00,NNE,30,4.0,4.0,31,-99.99,,,-99.99,,2013-03-19 03:11:00,
2013-03-18 21:22:00,43.0,14.0,-100.00,NNE,30,4.0,4.0,31,-99.99,,,-99.99,,2013-03-19 03:22:00,
2013-03-18 21:32:00,41.0,15.0,-100.00,North,358,4.0,4.0,33,-99.99,,,-99.99,,2013-03-19 03:32:00,
2013-03-18 21:42:00,43.0,13.0,-100.00,NNE,21,2.0,3.0,30,-99.99,,,-99.99,,2013-03-19 03:42:00,
2013-03-18 21:53:00,41.0,14.0,-100.00,NNE,24,5.0,5.0,32,-99.99,,,-99.99,,2013-03-19 03:53:00,
2013-03-18 22:02:00,41.0,13.0,-100.00,NE,39,3.0,4.0,30,-99.99,,,-99.99,,2013-03-19 04:02:00,
2013-03-18 22:12:00,41.0,13.0,-100.00,NE,39,3.0,4.0,30,-99.99,,,-99.99,,2013-03-19 04:12:00,
2013-03-18 22:22:00,40.0,14.0,-100.00,NE,34,2.0,3.0,34,-99.99,,,-99.99,,2013-03-19 04:22:00,
2013-03-18 22:32:00,40.0,14.0,-100.00,NE,34,2.0,3.0,34,-99.99,,,-99.99,,2013-03-19 04:32:00,
2013-03-18 22:42:00,43.0,13.0,-100.00,NE,47,4.0,5.0,28,-99.99,,,-99.99,,2013-03-19 04:42:00,
2013-03-18 22:52:00,43.0,13.0,-100.00,NNE,22,5.0,6.0,29,-99.99,,,-99.99,,2013-03-19 04:52:00,
2013-03-18 23:02:00,44.0,13.0,-100.00,NNE,28,3.0,4.0,28,-99.99,,,-99.99,,2013-03-19 05:02:00,
2013-03-18 23:22:00,42.0,14.0,-100.00,North,350,4.0,4.0,30,-99.99,,,-99.99,,2013-03-19 05:22:00,
2013-03-18 23:32:00,41.0,14.0,-100.00,NNE,15,4.0,5.0,32,-99.99,,,-99.99,,2013-03-19 05:32:00,
2013-03-18 23:42:00,41.0,14.0,-100.00,NNE,15,4.0,5.0,32,-99.99,,,-99.99,,2013-03-19 05:42:00,
2013-03-18 23:52:00,41.0,14.0,-100.00,NE,34,3.0,4.0,32,-99.99,,,-99.99,,2013-03-19 05:52:00,